Etusivu
METAR-TAF:

METAR-TAF

Lentoasemat :

Sotilaslentoasema

Salon-de-Provence, Ranska

Leveyspiiri: 43-36N, Pituuspiiri: 005-06E, korkeus merenpinnasta: 59 m

Tämänhetkinen sää

Tämä raportti tehtiin 35 minuuttia sitten, kello 15.00 UTC
Tuuli 5 kn lännestä/luoteesta, vaihdellen lounaan ja pohjoisen välillä
Lämpötila 19°C
Kosteus 26%
Ilmanpaine 1026 hPa
Näkyvyys 10 km tai enemmän
ei pilviä alle 1500 m:ssä eikä cumulonimbus-pilviä

METAR: LFMY 211500Z AUTO 29005KT 220V360 CAVOK 19/M01 Q1026 NOSIG

Aika: 16:35 (15:35 UTC)

Sääennuste

Tämä raportti tehtiin 1 tunti ja 35 minuuttia sitten, kello 14.00 UTC
Ennuste voimassa 21. päivästä klo 15 UTC - 22. päivään klo 15 UTC
Tuuli 6 kn pohjoisen/luoteesta
Näkyvyys 10 km tai enemmän
ei pilviä alle 1500 m:ssä eikä cumulonimbus-pilviä
Tulossa
21. päivästä klo 19 UTC - 21. päivään klo 21 UTC
Tuuli 2 kn eri suunnista

TAF: LFMY 211400Z 2115/2215 33006KT CAVOK BECMG 2119/2121 VRB02KT

Säähavainnot ja -ennusteet yli 4000 lentoasemalta (METAR- ja TAF-raportit).

Käytössä olevat sääasemat on merkitty karttaan keltaisilla ja punaisilla pisteillä.

Aseta hiiri pisteen päälle nähdäksesi sääaseman nimen.

Klikkaa sitten nähdäksesi säähavainnot ja -ennusteet.

Kartan vaihtaminen: klikkaa mustalla rastilla varustettuja vihreitä pisteitä, niin voit zoomata sisään; viivalla varustettua vihreää pistettä, niin voit zoomata ulos tai vihreitä nuolia, niin pääset viereisille kartoille.


METAR-TAF: